Eccles, West Virginia
Current Conditions -  °F | °C
As of 10:51 AM on Friday 31 Oct 2014 (Local Time) from KBKW Reporting Station
Broken Clouds Broken Clouds  
Wind Chill: 43°   Ceiling: 3300
Heat Index: 43°   Visibility: 10mi
Dew Point: 33°   Wind: 0mph
Humidity: 68%   Direction: NA
Pressure: 29.92"   Gusts: NA
Location:  37.79°N, 81.27°W
Report Text: KBKW 311451Z AUTO 00000KT 10SM BKN033 06/01 A2992 RMK AO2 SLP150 T00610006 58004 TSNO
Loading
Personal Weather Stations






























Interactive Weather Map
Tropical Storm Tracking
New forecast layout! Learn more

10-Day Weather Forecast

Advertisements
Track Severe Weather on mobile